createdAt,value
2022-07-26T02:43:51.556Z,11.75
2022-07-26T03:40:07.855Z,16.42
2022-07-26T03:58:06.219Z,11.50
2022-07-26T04:10:50.908Z,11.85
2022-07-26T04:22:35.452Z,8.48
2022-07-26T04:28:14.406Z,11.90
2022-07-26T04:40:55.418Z,9.60
2022-07-26T04:47:13.124Z,10.20
2022-07-26T04:52:16.430Z,11.98
2022-07-26T04:57:19.098Z,9.57
2022-07-26T05:02:21.335Z,9.02
2022-07-26T05:07:23.403Z,8.90
2022-07-26T05:12:25.299Z,9.55
2022-07-26T05:17:27.379Z,10.00
2022-07-26T05:22:29.426Z,8.20
2022-07-26T05:27:31.465Z,13.07
2022-07-26T05:32:34.126Z,8.27
2022-07-26T05:37:36.990Z,8.80
2022-07-26T05:42:38.957Z,6.40
2022-07-26T05:47:56.143Z,8.10
2022-07-26T05:52:58.120Z,9.32
2022-07-26T05:58:00.073Z,8.65
2022-07-26T06:03:22.095Z,8.45
2022-07-26T06:08:26.100Z,6.72
2022-07-26T06:13:28.016Z,6.22
2022-07-26T06:18:29.985Z,10.75
2022-07-26T06:23:34.613Z,10.68
2022-07-26T06:28:38.568Z,9.75
2022-07-26T06:33:40.547Z,7.97
2022-07-26T06:38:42.620Z,6.43
2022-07-26T06:43:44.565Z,6.80
2022-07-26T06:48:53.025Z,6.78
2022-07-26T06:53:58.803Z,4.82
2022-07-26T06:59:07.568Z,7.95
2022-07-26T07:04:11.584Z,5.65
2022-07-26T07:09:13.897Z,7.00
2022-07-26T07:14:17.908Z,5.25
2022-07-26T07:19:20.074Z,5.00
2022-07-26T07:24:23.457Z,6.82
2022-07-26T07:29:25.488Z,10.23
2022-07-26T07:34:31.531Z,7.82
2022-07-26T07:44:41.607Z,5.68
2022-07-26T07:49:43.758Z,2.03
2022-07-26T07:54:45.738Z,2.80
2022-07-26T07:59:47.664Z,8.60
2022-07-26T08:04:49.641Z,3.92
2022-07-26T08:09:52.257Z,3.25
2022-07-26T08:14:54.241Z,3.90
2022-07-26T08:20:00.365Z,4.32
2022-07-26T08:25:02.731Z,2.65
2022-07-26T08:30:05.601Z,3.85
2022-07-26T08:35:19.744Z,3.40
2022-07-26T08:40:22.502Z,6.22
2022-07-26T08:45:27.310Z,6.85
2022-07-26T08:50:29.838Z,2.92
2022-07-26T08:55:50.230Z,4.53
2022-07-26T09:01:08.930Z,4.85
2022-07-26T09:06:18.316Z,3.80
2022-07-26T09:11:32.715Z,4.90
2022-07-26T09:16:39.293Z,4.72
2022-07-26T09:21:42.003Z,5.90
2022-07-26T09:26:56.773Z,5.55
2022-07-26T09:32:17.324Z,6.13
2022-07-26T09:37:33.001Z,6.22
2022-07-26T09:42:38.870Z,5.68
2022-07-26T09:47:41.818Z,6.15
2022-07-26T09:53:12.430Z,5.28
2022-07-26T09:58:16.630Z,3.50
2022-07-26T10:03:19.016Z,4.35
2022-07-26T10:08:24.049Z,4.95
2022-07-26T10:13:28.653Z,5.15
2022-07-26T10:18:38.238Z,4.38
2022-07-26T10:23:52.552Z,2.88
2022-07-26T10:28:54.689Z,5.22
2022-07-26T10:33:59.253Z,7.10
2022-07-26T10:39:14.272Z,4.55
2022-07-26T10:44:30.015Z,5.70
2022-07-26T10:49:54.892Z,3.15
2022-07-26T10:54:59.891Z,3.72
2022-07-26T11:00:08.599Z,3.10
2022-07-26T11:05:16.342Z,5.13
2022-07-26T11:10:28.656Z,4.03
2022-07-26T11:15:31.035Z,3.97
2022-07-26T11:20:33.099Z,3.55
2022-07-26T11:25:35.085Z,4.38
2022-07-26T11:30:56.311Z,3.22
2022-07-26T11:35:58.304Z,5.07
2022-07-26T11:41:00.404Z,3.00
2022-07-26T11:46:02.411Z,4.28
2022-07-26T11:51:17.214Z,3.92
2022-07-26T11:56:22.049Z,3.97
2022-07-26T12:01:26.021Z,1.83
2022-07-26T12:06:29.006Z,2.45
2022-07-26T12:11:41.842Z,1.85
2022-07-26T12:16:47.575Z,2.78
2022-07-26T12:22:15.035Z,3.08
2022-07-26T12:27:28.455Z,3.45
2022-07-26T12:32:42.108Z,4.63
2022-07-26T12:37:47.049Z,4.53
2022-07-26T12:42:55.829Z,3.17
2022-07-26T12:48:03.813Z,2.87
2022-07-26T12:53:08.977Z,8.68
2022-07-26T12:58:14.553Z,5.47
2022-07-26T13:03:16.655Z,6.03
2022-07-26T13:08:18.787Z,4.05
2022-07-26T13:13:20.880Z,3.92
2022-07-26T13:18:22.841Z,5.53
2022-07-26T13:23:27.035Z,6.50
2022-07-26T13:28:29.004Z,5.13
2022-07-26T13:33:32.448Z,4.60
2022-07-26T13:38:34.661Z,6.90
2022-07-26T13:43:36.652Z,5.78
2022-07-26T13:48:48.065Z,4.13
2022-07-26T13:54:00.176Z,6.37
2022-07-26T13:59:02.120Z,4.80
2022-07-26T14:04:05.292Z,1.75
2022-07-26T14:09:11.040Z,5.53
2022-07-26T14:14:13.896Z,7.65
2022-07-26T14:19:16.536Z,2.92
2022-07-26T14:24:18.991Z,4.63
2022-07-26T14:29:22.990Z,5.13
2022-07-26T14:34:27.370Z,2.90
2022-07-26T14:39:29.396Z,4.28
2022-07-26T14:44:31.344Z,7.05
2022-07-26T14:49:33.296Z,3.45
2022-07-26T14:54:35.317Z,4.20
2022-07-26T14:59:37.651Z,7.15
2022-07-26T15:04:39.629Z,3.90
2022-07-26T15:09:41.752Z,4.18
2022-07-26T15:19:48.013Z,4.90
2022-07-26T15:29:51.947Z,4.40
2022-07-26T15:34:53.910Z,7.22
2022-07-26T15:39:56.183Z,3.58
2022-07-26T15:44:58.929Z,6.68
2022-07-26T15:50:01.183Z,4.13
2022-07-26T15:55:03.454Z,7.40
2022-07-26T16:00:11.654Z,6.65
2022-07-26T16:05:14.296Z,9.07
2022-07-26T16:10:17.778Z,7.07
2022-07-26T16:15:19.832Z,6.00
2022-07-26T16:20:21.927Z,6.90
2022-07-26T16:25:24.044Z,4.18
2022-07-26T16:35:28.770Z,6.07
2022-07-26T16:40:31.164Z,2.58
2022-07-26T16:45:33.331Z,2.80
2022-07-26T16:55:37.414Z,5.67
2022-07-26T17:05:41.374Z,5.23
2022-07-26T17:10:43.919Z,7.32
2022-07-26T17:15:46.258Z,3.45
2022-07-26T17:20:48.516Z,2.65
2022-07-26T17:30:52.705Z,9.48
2022-07-26T17:35:54.788Z,9.38
2022-07-26T17:40:59.317Z,4.13
2022-07-26T17:46:01.708Z,4.25
2022-07-26T17:51:03.865Z,3.53
2022-07-26T17:56:06.244Z,6.95
2022-07-26T18:01:08.657Z,6.30
2022-07-26T18:06:10.820Z,3.60
2022-07-26T18:16:15.020Z,4.40
2022-07-26T18:26:18.926Z,9.37
2022-07-26T18:31:21.078Z,8.18
2022-07-26T18:41:25.011Z,6.57
2022-07-26T18:46:27.197Z,5.53
2022-07-26T18:51:29.694Z,4.10
2022-07-26T18:56:33.806Z,5.25
2022-07-26T19:01:35.863Z,3.17
2022-07-26T19:06:40.278Z,3.90
2022-07-26T19:11:45.664Z,3.97
2022-07-26T19:16:50.236Z,4.07
2022-07-26T19:21:52.210Z,4.70
2022-07-26T19:26:54.475Z,3.47
2022-07-26T19:31:56.568Z,6.05
2022-07-26T19:36:58.721Z,5.38
2022-07-26T19:42:00.827Z,1.90
2022-07-26T19:47:02.818Z,7.38
2022-07-26T19:52:09.697Z,9.02
2022-07-26T19:57:13.603Z,3.28
